Rio Bananal, Brazil
Current Conditions -  °F | °C
As of 5:00 AM on Sunday 26 Oct 2014 (Local Time) from SBVT Reporting Station
Scattered Clouds Scattered Clouds  
Wind Chill: 23°   Ceiling: Unl
Heat Index: 23°   Visibility: 6mi
Dew Point: 19°   Wind: 6mph
Humidity: 78%   Direction: 20°NNE
Pressure: 29.91"   Gusts: NA
Location:  19.26°S, 40.34°W
Report Text: SBVT 260700Z 02005KT 9999 SCT030 SCT080 23/19 Q1013
Loading
Personal Weather Stations






























Interactive Weather Map
Tropical Storm Tracking
New forecast layout! Learn more

10-Day Weather Forecast

Advertisements
Track Severe Weather on mobile